aviador You're here:

OKBK Decoded Metar

KUWAIT in KUWAIT
Report Time2018-05-23 06:00:00
UTC Time2018-05-23 06:49:49
Flight Rules mvfr MVFR
Wind230° at 03 kt
W.Decomp.*RWY 15: 0.7 kt HW 2.9 kt RCW
W.Rank230° ranks 31
Current wind is below 230° avg. (4.7)
Visibility7000 m
Phenomena:N/A
Clouds:N/A
Expected CloudBase > 11,200 ft AGL from Temp-Dew spread
CeilingNone
Temp35°C (ISA +20)
Dew Point07°C (18% RH)
Heat Index32.8°C
AAT33.2°C
QNH1010 hPa
Density Alt2,730 ft
Elevation180 ft
Report Wrong Elevation
Raw Report
METAR OKBK 230600Z 23003KT 7000 NSC 35/07 Q1010 NOSIG=

Extra information for OKBK:More info

Metar Taf Metar & Taf Last 4 Metars F.Rules Stats Wind Profile Meteogram Temp Stats Airport Information Weather charts Add Link Nearby VenuesMetar ALERT Operation Metar Decoded Social comments